Time;durP1;ratioP1;P1;durP2;ratioP2;P2;SDS_P1;SDS_P2;PMS_P1;PMS_P2;Temp;Humidity;BMP_temperature;BMP_pressure;BME280_temperature;BME280_humidity;BME280_pressure;Samples;Min_cycle;Max_cycle;Signal;HPM_P1;HPM_P2
2023/09/08 00:00:00;;;;;;;9.43;8.80;;;;;;;;;;4890648;29;20492;-73
2023/09/08 00:02:27;;;;;;;8.77;8.27;;;;;;;;;;4889888;29;20425;-73
2023/09/08 00:04:53;;;;;;;9.63;8.63;;;;;;;;;;4891074;29;20440;-72
2023/09/08 00:07:19;;;;;;;9.00;8.10;;;;;;;;;;4888952;29;20455;-72
2023/09/08 00:09:45;;;;;;;9.77;8.83;;;;;;;;;;4887444;29;20421;-73
2023/09/08 00:12:11;;;;;;;8.50;7.87;;;;;;;;;;4889639;29;20441;-71
2023/09/08 00:14:37;;;;;;;8.00;7.53;;;;;;;;;;4889012;29;20991;-73
2023/09/08 00:17:04;;;;;;;8.13;7.50;;;;;;;;;;4889407;29;20638;-72
2023/09/08 00:19:30;;;;;;;9.13;8.30;;;;;;;;;;4886016;29;20960;-73
2023/09/08 00:21:56;;;;;;;7.77;7.47;;;;;;;;;;4884038;29;20445;-73
2023/09/08 00:24:23;;;;;;;8.80;8.20;;;;;;;;;;4884973;29;21003;-72
2023/09/08 00:26:49;;;;;;;8.50;8.00;;;;;;;;;;4889561;29;20437;-73
2023/09/08 00:29:14;;;;;;;8.73;8.17;;;;;;;;;;4887031;29;20804;-73
2023/09/08 00:31:41;;;;;;;9.40;8.73;;;;;;;;;;4890132;29;20479;-72
2023/09/08 00:34:07;;;;;;;8.03;7.43;;;;;;;;;;4887439;29;20604;-70
2023/09/08 00:36:33;;;;;;;9.63;9.00;;;;;;;;;;4890216;29;20420;-72
2023/09/08 00:38:59;;;;;;;9.03;8.63;;;;;;;;;;4885701;29;20445;-72
2023/09/08 00:41:25;;;;;;;9.30;8.50;;;;;;;;;;4883391;29;20480;-72
2023/09/08 00:43:51;;;;;;;8.80;8.30;;;;;;;;;;4890221;29;20429;-72
2023/09/08 00:46:17;;;;;;;10.80;9.07;;;;;;;;;;4887778;29;20452;-72
2023/09/08 00:48:44;;;;;;;9.47;8.97;;;;;;;;;;4888499;29;20463;-73
2023/09/08 00:51:10;;;;;;;8.90;8.30;;;;;;;;;;4881973;29;20528;-71
2023/09/08 00:53:36;;;;;;;9.10;8.37;;;;;;;;;;4889605;29;20473;-72
2023/09/08 00:56:02;;;;;;;9.13;8.63;;;;;;;;;;4889416;29;20445;-72
2023/09/08 00:58:29;;;;;;;8.90;8.40;;;;;;;;;;4891059;29;20429;-72
2023/09/08 01:00:57;;;;;;;9.90;8.57;;;;;;;;;;4889480;29;20468;-71
2023/09/08 01:03:23;;;;;;;9.13;8.47;;;;;;;;;;4889826;29;20425;-72
2023/09/08 01:05:49;;;;;;;9.80;9.10;;;;;;;;;;4891163;29;20878;-72
2023/09/08 01:08:15;;;;;;;9.47;8.73;;;;;;;;;;4890359;29;20443;-73
2023/09/08 01:10:42;;;;;;;8.83;8.23;;;;;;;;;;4886114;29;20484;-71
2023/09/08 01:13:08;;;;;;;10.00;9.20;;;;;;;;;;4881893;29;20457;-71
2023/09/08 01:15:34;;;;;;;9.40;8.60;;;;;;;;;;4889245;29;20437;-71
2023/09/08 01:18:00;;;;;;;9.93;9.03;;;;;;;;;;4888185;29;20457;-72
2023/09/08 01:20:46;;;;;;;9.70;9.00;;;;;;;;;;4884087;29;20858;-72
2023/09/08 01:23:19;;;;;;;8.97;8.40;;;;;;;;;;4880981;29;20453;-72
2023/09/08 01:25:57;;;;;;;9.47;8.87;;;;;;;;;;4881626;29;20422;-72
2023/09/08 01:28:24;;;;;;;9.50;8.80;;;;;;;;;;4887387;29;20470;-72
2023/09/08 01:30:50;;;;;;;9.70;9.10;;;;;;;;;;4889286;29;20560;-71
2023/09/08 01:33:16;;;;;;;10.13;9.33;;;;;;;;;;4889178;29;20453;-70
2023/09/08 01:35:43;;;;;;;8.80;8.30;;;;;;;;;;4887938;29;20453;-71
2023/09/08 01:38:09;;;;;;;9.30;8.80;;;;;;;;;;4888252;29;20864;-71
2023/09/08 01:40:35;;;;;;;9.27;8.67;;;;;;;;;;4884075;29;20903;-72
2023/09/08 01:43:01;;;;;;;8.70;8.00;;;;;;;;;;4887211;29;20531;-72
2023/09/08 01:45:27;;;;;;;8.10;7.60;;;;;;;;;;4889285;29;20452;-72
2023/09/08 01:47:53;;;;;;;8.63;7.87;;;;;;;;;;4888740;29;20572;-72
2023/09/08 01:50:22;;;;;;;8.67;7.97;;;;;;;;;;4887224;29;20480;-71
2023/09/08 01:52:50;;;;;;;9.23;8.63;;;;;;;;;;4887653;29;20409;-71
2023/09/08 01:55:16;;;;;;;8.50;8.10;;;;;;;;;;4886890;29;20501;-71
2023/09/08 01:57:43;;;;;;;8.07;7.57;;;;;;;;;;4887774;29;20425;-72
2023/09/08 02:00:09;;;;;;;8.73;8.40;;;;;;;;;;4885649;29;21052;-72
2023/09/08 02:02:35;;;;;;;7.90;7.50;;;;;;;;;;4889854;29;20424;-72
2023/09/08 02:05:01;;;;;;;8.43;7.73;;;;;;;;;;4888738;29;20460;-72
2023/09/08 02:07:27;;;;;;;8.73;8.13;;;;;;;;;;4888206;29;20495;-72
2023/09/08 02:09:53;;;;;;;8.47;7.90;;;;;;;;;;4881320;29;20464;-71
2023/09/08 02:12:19;;;;;;;8.83;8.23;;;;;;;;;;4887257;29;20498;-72
2023/09/08 02:14:45;;;;;;;8.50;8.00;;;;;;;;;;4886190;29;20445;-71
2023/09/08 02:17:11;;;;;;;8.87;8.10;;;;;;;;;;4887746;29;20437;-72
2023/09/08 02:19:37;;;;;;;8.60;8.00;;;;;;;;;;4888493;29;20516;-72
2023/09/08 02:22:03;;;;;;;8.77;8.37;;;;;;;;;;4888488;29;20433;-72
2023/09/08 02:24:29;;;;;;;8.80;8.17;;;;;;;;;;4888769;29;20496;-72
2023/09/08 02:26:55;;;;;;;10.20;9.27;;;;;;;;;;4887819;29;20425;-72
2023/09/08 02:29:22;;;;;;;9.20;8.70;;;;;;;;;;4888812;29;20448;-72
2023/09/08 02:31:48;;;;;;;9.63;8.97;;;;;;;;;;4887849;29;21296;-72
2023/09/08 02:34:14;;;;;;;9.70;9.00;;;;;;;;;;4887688;29;20449;-71
2023/09/08 02:36:40;;;;;;;8.30;7.83;;;;;;;;;;4887492;29;20441;-72
2023/09/08 02:39:07;;;;;;;8.43;8.00;;;;;;;;;;4888640;29;20767;-72
2023/09/08 02:41:33;;;;;;;8.30;7.90;;;;;;;;;;4884397;29;20508;-71
2023/09/08 02:43:59;;;;;;;8.57;8.00;;;;;;;;;;4885581;29;20861;-71
2023/09/08 02:46:25;;;;;;;8.67;8.27;;;;;;;;;;4888268;29;20484;-71
2023/09/08 02:48:52;;;;;;;8.10;7.80;;;;;;;;;;4888686;29;20433;-71
2023/09/08 02:51:18;;;;;;;9.67;8.87;;;;;;;;;;4887831;29;20878;-71
2023/09/08 02:53:44;;;;;;;8.73;7.97;;;;;;;;;;4888493;29;20437;-71
2023/09/08 02:56:10;;;;;;;8.80;8.30;;;;;;;;;;4887934;29;20807;-71
2023/09/08 02:58:36;;;;;;;8.80;8.40;;;;;;;;;;4886588;29;20435;-72
2023/09/08 03:01:14;;;;;;;9.83;9.20;;;;;;;;;;4888309;29;20511;-71
2023/09/08 03:03:40;;;;;;;11.17;9.07;;;;;;;;;;4888660;29;20444;-72
2023/09/08 03:06:06;;;;;;;9.60;8.90;;;;;;;;;;4881321;29;20703;-72
2023/09/08 03:08:32;;;;;;;9.40;8.90;;;;;;;;;;4888997;29;20441;-72
2023/09/08 03:11:01;;;;;;;10.53;9.77;;;;;;;;;;4880208;29;20472;-72
2023/09/08 03:13:28;;;;;;;10.53;9.80;;;;;;;;;;4889154;29;20429;-72
2023/09/08 03:15:54;;;;;;;9.47;8.80;;;;;;;;;;4882364;29;20460;-72
2023/09/08 03:18:20;;;;;;;9.00;8.50;;;;;;;;;;4888530;29;20475;-74
2023/09/08 03:20:50;;;;;;;9.87;9.10;;;;;;;;;;4880593;29;20453;-71
2023/09/08 03:23:16;;;;;;;10.80;9.70;;;;;;;;;;4888437;29;20441;-72
2023/09/08 03:25:42;;;;;;;10.10;9.37;;;;;;;;;;4887496;29;20508;-71
2023/09/08 03:28:08;;;;;;;9.60;8.87;;;;;;;;;;4887365;29;20453;-71
2023/09/08 03:30:34;;;;;;;10.00;9.43;;;;;;;;;;4887133;29;20488;-72
2023/09/08 03:33:00;;;;;;;10.23;9.63;;;;;;;;;;4886797;29;20452;-71
2023/09/08 03:35:26;;;;;;;9.60;9.03;;;;;;;;;;4888923;29;20499;-70
2023/09/08 03:37:52;;;;;;;9.03;8.43;;;;;;;;;;4887994;29;20468;-71
2023/09/08 03:40:18;;;;;;;10.20;9.50;;;;;;;;;;4884742;29;20551;-72
2023/09/08 03:42:44;;;;;;;9.20;8.70;;;;;;;;;;4878650;29;20448;-72
2023/09/08 03:45:10;;;;;;;9.63;8.90;;;;;;;;;;4885149;29;20527;-71
2023/09/08 03:47:36;;;;;;;9.30;8.70;;;;;;;;;;4886891;29;20475;-71
2023/09/08 03:50:02;;;;;;;11.10;9.90;;;;;;;;;;4886790;29;20530;-72
2023/09/08 03:52:28;;;;;;;9.83;9.23;;;;;;;;;;4887146;29;20485;-71
2023/09/08 03:54:54;;;;;;;10.73;10.03;;;;;;;;;;4888020;29;20477;-72
2023/09/08 03:57:20;;;;;;;9.73;9.00;;;;;;;;;;4887057;29;20544;-72
2023/09/08 03:59:46;;;;;;;13.60;9.37;;;;;;;;;;4890537;29;20433;-71
2023/09/08 04:02:12;;;;;;;9.80;9.20;;;;;;;;;;4890490;29;20563;-72
2023/09/08 04:04:38;;;;;;;9.97;9.40;;;;;;;;;;4889999;29;20501;-71
2023/09/08 04:07:04;;;;;;;10.30;9.37;;;;;;;;;;4890165;29;20808;-73
2023/09/08 04:09:31;;;;;;;10.87;10.03;;;;;;;;;;4872381;29;20449;-72
2023/09/08 04:11:57;;;;;;;10.33;9.17;;;;;;;;;;4888746;29;20531;-72
2023/09/08 04:14:26;;;;;;;10.47;9.90;;;;;;;;;;4888179;29;20448;-73
2023/09/08 04:16:52;;;;;;;9.70;9.00;;;;;;;;;;4890653;29;21051;-71
2023/09/08 04:19:18;;;;;;;11.23;9.30;;;;;;;;;;4889501;29;20543;-72
2023/09/08 04:21:44;;;;;;;10.03;9.33;;;;;;;;;;4888800;29;20536;-72
2023/09/08 04:24:10;;;;;;;10.07;9.17;;;;;;;;;;4888456;29;20457;-73
2023/09/08 04:26:37;;;;;;;10.30;9.60;;;;;;;;;;4887056;29;21236;-72
2023/09/08 04:29:02;;;;;;;10.00;9.40;;;;;;;;;;4891214;29;20917;-72
2023/09/08 04:31:28;;;;;;;10.13;9.57;;;;;;;;;;4881562;29;20488;-71
2023/09/08 04:33:55;;;;;;;9.83;9.23;;;;;;;;;;4890289;29;20850;-71
2023/09/08 04:36:20;;;;;;;9.90;9.00;;;;;;;;;;4889741;29;20543;-72
2023/09/08 04:38:46;;;;;;;9.57;9.03;;;;;;;;;;4886191;29;20589;-73
2023/09/08 04:41:12;;;;;;;8.87;8.40;;;;;;;;;;4886700;29;20467;-72
2023/09/08 04:43:38;;;;;;;10.90;10.10;;;;;;;;;;4883721;29;21031;-72
2023/09/08 04:46:04;;;;;;;9.73;9.10;;;;;;;;;;4884334;29;20437;-72
2023/09/08 04:48:30;;;;;;;10.03;8.67;;;;;;;;;;4885547;29;20477;-72
2023/09/08 04:50:57;;;;;;;10.70;9.77;;;;;;;;;;4886738;29;20476;-73
2023/09/08 04:53:23;;;;;;;10.97;10.37;;;;;;;;;;4888450;29;20429;-72
2023/09/08 04:55:49;;;;;;;9.80;9.10;;;;;;;;;;4888839;29;20453;-71
2023/09/08 04:58:15;;;;;;;10.67;9.77;;;;;;;;;;4888964;29;20417;-72
2023/09/08 05:00:41;;;;;;;10.60;9.63;;;;;;;;;;4888676;29;20678;-73
2023/09/08 05:03:07;;;;;;;9.97;9.20;;;;;;;;;;4889308;29;20417;-72
2023/09/08 05:05:33;;;;;;;9.27;8.80;;;;;;;;;;4884539;29;20473;-72
2023/09/08 05:07:59;;;;;;;10.53;9.80;;;;;;;;;;4890171;29;20433;-72
2023/09/08 05:10:25;;;;;;;10.50;9.80;;;;;;;;;;4882307;29;20472;-72
2023/09/08 05:12:51;;;;;;;15.70;10.93;;;;;;;;;;4886236;29;20467;-71
2023/09/08 05:15:17;;;;;;;9.80;9.20;;;;;;;;;;4888582;29;20459;-73
2023/09/08 05:17:43;;;;;;;9.30;8.80;;;;;;;;;;4888218;29;20443;-72
2023/09/08 05:20:09;;;;;;;10.87;10.23;;;;;;;;;;4888588;29;20524;-72
2023/09/08 05:22:36;;;;;;;10.83;10.10;;;;;;;;;;4885887;29;21839;-73
2023/09/08 05:25:02;;;;;;;9.50;9.00;;;;;;;;;;4875590;29;20501;-72
2023/09/08 05:27:28;;;;;;;9.90;8.90;;;;;;;;;;4884885;29;20949;-72
2023/09/08 05:29:54;;;;;;;9.63;8.77;;;;;;;;;;4885661;29;20465;-72
2023/09/08 05:32:20;;;;;;;9.83;9.23;;;;;;;;;;4888056;29;20452;-72
2023/09/08 05:34:46;;;;;;;11.47;10.67;;;;;;;;;;4879511;29;20495;-73
2023/09/08 05:37:12;;;;;;;15.00;13.87;;;;;;;;;;4873726;29;20968;-73
2023/09/08 05:39:38;;;;;;;10.70;9.83;;;;;;;;;;4880372;29;20489;-71
2023/09/08 05:42:05;;;;;;;10.53;9.93;;;;;;;;;;4879302;29;20453;-72
2023/09/08 05:44:30;;;;;;;10.00;9.40;;;;;;;;;;4877114;29;20532;-72
2023/09/08 05:46:56;;;;;;;10.87;9.80;;;;;;;;;;4875485;29;20555;-72
2023/09/08 05:49:22;;;;;;;10.00;9.30;;;;;;;;;;4878396;29;20460;-72
2023/09/08 05:51:49;;;;;;;8.37;7.97;;;;;;;;;;4878039;29;20583;-72
2023/09/08 05:54:15;;;;;;;9.57;8.87;;;;;;;;;;4876645;29;20445;-72
2023/09/08 05:56:41;;;;;;;10.30;9.23;;;;;;;;;;4878920;29;21065;-72
2023/09/08 05:59:07;;;;;;;9.90;8.27;;;;;;;;;;4877994;29;20438;-73
2023/09/08 06:01:33;;;;;;;9.60;8.70;;;;;;;;;;4878252;29;20465;-74
2023/09/08 06:03:59;;;;;;;9.17;8.30;;;;;;;;;;4877188;29;20857;-72
2023/09/08 06:06:26;;;;;;;7.97;7.67;;;;;;;;;;4872183;29;20464;-73
2023/09/08 06:08:52;;;;;;;8.07;7.67;;;;;;;;;;4876956;29;20470;-72
2023/09/08 06:11:18;;;;;;;9.27;8.57;;;;;;;;;;4875066;29;20480;-72
2023/09/08 06:13:44;;;;;;;8.07;7.57;;;;;;;;;;4878267;29;20449;-74
2023/09/08 06:16:10;;;;;;;7.87;7.23;;;;;;;;;;4879017;29;20464;-73
2023/09/08 06:18:39;;;;;;;11.70;7.57;;;;;;;;;;4881012;29;21248;-73
2023/09/08 06:21:09;;;;;;;8.07;7.40;;;;;;;;;;4877847;29;20963;-73
2023/09/08 06:23:35;;;;;;;8.17;7.47;;;;;;;;;;4876163;29;20444;-73
2023/09/08 06:26:01;;;;;;;6.77;6.30;;;;;;;;;;4890968;29;20468;-74
2023/09/08 06:28:27;;;;;;;7.67;7.07;;;;;;;;;;4876986;29;20452;-73
2023/09/08 06:30:54;;;;;;;7.47;7.00;;;;;;;;;;4875411;29;20477;-73
2023/09/08 06:33:20;;;;;;;8.20;7.80;;;;;;;;;;4880178;29;20468;-72
2023/09/08 06:35:47;;;;;;;8.57;7.93;;;;;;;;;;4877878;29;21170;-73
2023/09/08 06:38:13;;;;;;;7.00;6.50;;;;;;;;;;4879337;29;20472;-72
2023/09/08 06:40:39;;;;;;;7.60;7.10;;;;;;;;;;4876562;29;20515;-73
2023/09/08 06:43:05;;;;;;;9.23;8.33;;;;;;;;;;4873250;29;20491;-73
2023/09/08 06:45:31;;;;;;;7.83;7.27;;;;;;;;;;4875458;29;20449;-73
2023/09/08 06:47:59;;;;;;;11.97;9.37;;;;;;;;;;4875093;29;20559;-73
2023/09/08 06:50:26;;;;;;;7.17;6.57;;;;;;;;;;4878714;29;20827;-73
2023/09/08 06:52:52;;;;;;;9.37;6.77;;;;;;;;;;4877500;29;20441;-73
2023/09/08 06:55:18;;;;;;;8.63;8.03;;;;;;;;;;4878844;29;20492;-72
2023/09/08 06:57:44;;;;;;;6.93;6.53;;;;;;;;;;4878544;29;20496;-72
2023/09/08 07:00:13;;;;;;;7.43;6.90;;;;;;;;;;4869751;29;20524;-73
2023/09/08 07:02:40;;;;;;;7.27;6.53;;;;;;;;;;4879649;29;20941;-73
2023/09/08 07:05:08;;;;;;;6.13;5.83;;;;;;;;;;4878534;29;20453;-72
2023/09/08 07:07:35;;;;;;;7.23;6.63;;;;;;;;;;4878163;29;20452;-73
2023/09/08 07:10:02;;;;;;;6.83;6.43;;;;;;;;;;4869665;29;20456;-73
2023/09/08 07:12:28;;;;;;;29.53;27.13;;;;;;;;;;4878275;29;21208;-72
2023/09/08 07:14:54;;;;;;;6.53;6.20;;;;;;;;;;4880843;29;20476;-71
2023/09/08 07:17:20;;;;;;;7.50;7.00;;;;;;;;;;4878014;29;20453;-72
2023/09/08 07:19:46;;;;;;;8.03;7.53;;;;;;;;;;4878206;29;20731;-72
2023/09/08 07:22:12;;;;;;;7.30;6.60;;;;;;;;;;4876221;29;20449;-73
2023/09/08 07:24:38;;;;;;;7.37;5.73;;;;;;;;;;4875241;29;20956;-73
2023/09/08 07:27:04;;;;;;;6.70;6.10;;;;;;;;;;4877417;29;20484;-73
2023/09/08 07:29:30;;;;;;;7.17;6.67;;;;;;;;;;4877794;29;20477;-73
2023/09/08 07:31:56;;;;;;;5.70;5.30;;;;;;;;;;4877837;29;21147;-73
2023/09/08 07:34:22;;;;;;;7.73;7.03;;;;;;;;;;4874062;29;20465;-73
2023/09/08 07:36:48;;;;;;;6.10;5.80;;;;;;;;;;4872672;29;20453;-73
2023/09/08 07:39:14;;;;;;;6.87;6.33;;;;;;;;;;4878874;29;20474;-74
2023/09/08 07:41:40;;;;;;;9.17;7.13;;;;;;;;;;4878814;29;20497;-73
2023/09/08 07:44:07;;;;;;;5.57;5.47;;;;;;;;;;4879830;29;20485;-73
2023/09/08 07:46:33;;;;;;;5.97;5.67;;;;;;;;;;4880218;29;20819;-72
2023/09/08 07:49:00;;;;;;;11.07;6.57;;;;;;;;;;4878188;29;20449;-73
2023/09/08 07:51:26;;;;;;;6.00;5.70;;;;;;;;;;4878065;29;21135;-73
2023/09/08 07:53:53;;;;;;;7.47;6.93;;;;;;;;;;4875065;29;21039;-75
2023/09/08 07:56:19;;;;;;;10.57;6.50;;;;;;;;;;4876715;29;20579;-74
2023/09/08 07:58:45;;;;;;;5.43;5.03;;;;;;;;;;4878540;29;20872;-73
2023/09/08 08:01:13;;;;;;;8.00;7.43;;;;;;;;;;4882904;29;20716;-73
2023/09/08 08:03:39;;;;;;;5.70;5.40;;;;;;;;;;4877580;29;20941;-73
2023/09/08 08:06:06;;;;;;;6.10;4.67;;;;;;;;;;4879395;29;20460;-73
2023/09/08 08:08:32;;;;;;;6.00;5.80;;;;;;;;;;4877089;29;21141;-73
2023/09/08 08:10:58;;;;;;;6.23;5.67;;;;;;;;;;4874298;29;20553;-72
2023/09/08 08:13:24;;;;;;;5.90;5.43;;;;;;;;;;4879570;29;21096;-72
2023/09/08 08:15:50;;;;;;;5.83;5.40;;;;;;;;;;4879117;29;20437;-72
2023/09/08 08:18:16;;;;;;;4.60;4.60;;;;;;;;;;4873301;29;20442;-72
2023/09/08 08:20:42;;;;;;;4.97;4.77;;;;;;;;;;4880721;29;20468;-74
2023/09/08 08:23:09;;;;;;;5.73;5.43;;;;;;;;;;4881473;29;20452;-73
2023/09/08 08:25:35;;;;;;;5.07;4.77;;;;;;;;;;4881249;29;20523;-73
2023/09/08 08:28:01;;;;;;;5.77;4.90;;;;;;;;;;4874843;29;21239;-72
2023/09/08 08:30:27;;;;;;;5.10;4.80;;;;;;;;;;4879504;29;20863;-73
2023/09/08 08:32:53;;;;;;;4.27;4.17;;;;;;;;;;4880725;29;20445;-72
2023/09/08 08:35:20;;;;;;;5.60;5.27;;;;;;;;;;4871034;29;20806;-73
2023/09/08 08:37:47;;;;;;;4.00;3.90;;;;;;;;;;4880378;29;20876;-74
2023/09/08 08:40:13;;;;;;;4.63;4.43;;;;;;;;;;4877621;29;20445;-72
2023/09/08 08:42:39;;;;;;;4.23;4.13;;;;;;;;;;4880691;29;20455;-72
2023/09/08 08:45:05;;;;;;;3.73;3.70;;;;;;;;;;4881893;29;21007;-72
2023/09/08 08:47:31;;;;;;;4.97;4.77;;;;;;;;;;4870755;29;20452;-72
2023/09/08 08:49:58;;;;;;;6.50;4.60;;;;;;;;;;4875727;29;20483;-73
2023/09/08 08:52:26;;;;;;;4.60;4.50;;;;;;;;;;4878076;29;20484;-73
2023/09/08 08:54:52;;;;;;;4.63;4.43;;;;;;;;;;4880180;29;20749;-72
2023/09/08 08:57:18;;;;;;;4.10;3.90;;;;;;;;;;4880567;29;20535;-72
2023/09/08 08:59:46;;;;;;;4.73;4.63;;;;;;;;;;4882457;29;20508;-73
2023/09/08 09:02:14;;;;;;;4.50;4.40;;;;;;;;;;4871614;29;20465;-73
2023/09/08 09:04:40;;;;;;;3.97;3.97;;;;;;;;;;4876006;29;20813;-73
2023/09/08 09:07:06;;;;;;;4.73;4.73;;;;;;;;;;4892882;29;20460;-73
2023/09/08 09:09:32;;;;;;;4.77;4.63;;;;;;;;;;4879515;29;20501;-73
2023/09/08 09:11:58;;;;;;;4.87;4.57;;;;;;;;;;4888748;29;20480;-73
2023/09/08 09:14:25;;;;;;;5.43;5.00;;;;;;;;;;4884964;29;20901;-72
2023/09/08 09:16:51;;;;;;;5.17;5.00;;;;;;;;;;4877994;29;20449;-73
2023/09/08 09:19:27;;;;;;;5.67;5.27;;;;;;;;;;4887461;29;20814;-72
2023/09/08 09:21:57;;;;;;;4.87;4.73;;;;;;;;;;4893369;29;20455;-73
2023/09/08 09:24:29;;;;;;;4.33;4.33;;;;;;;;;;4892567;29;20428;-74
2023/09/08 09:26:56;;;;;;;5.07;4.87;;;;;;;;;;4910965;29;20818;-73
2023/09/08 09:29:22;;;;;;;4.60;4.50;;;;;;;;;;4895376;29;20452;-73
2023/09/08 09:32:02;;;;;;;4.10;3.90;;;;;;;;;;4885741;29;20496;-73
2023/09/08 09:34:28;;;;;;;4.90;4.70;;;;;;;;;;4890849;29;20439;-73
2023/09/08 09:36:54;;;;;;;4.37;4.20;;;;;;;;;;4898900;29;20839;-73
2023/09/08 09:39:21;;;;;;;4.37;4.37;;;;;;;;;;4881409;29;20574;-73
2023/09/08 09:41:48;;;;;;;3.83;3.83;;;;;;;;;;4881968;29;20437;-73
2023/09/08 09:44:14;;;;;;;4.70;4.43;;;;;;;;;;4893261;29;20448;-73
2023/09/08 09:46:44;;;;;;;4.53;4.33;;;;;;;;;;4882118;29;20441;-73
2023/09/08 09:49:12;;;;;;;4.20;4.20;;;;;;;;;;4883387;29;20427;-73
2023/09/08 09:51:43;;;;;;;4.73;4.50;;;;;;;;;;4882101;29;21062;-74
2023/09/08 09:54:09;;;;;;;4.80;4.60;;;;;;;;;;4901032;29;20448;-74
2023/09/08 09:56:37;;;;;;;4.93;4.70;;;;;;;;;;4886683;29;20986;-72
2023/09/08 09:59:04;;;;;;;5.37;5.13;;;;;;;;;;4890333;29;20487;-74
2023/09/08 10:01:30;;;;;;;5.03;4.70;;;;;;;;;;4882367;29;20473;-74
2023/09/08 10:03:56;;;;;;;4.50;4.30;;;;;;;;;;4886643;29;20429;-73
2023/09/08 10:06:22;;;;;;;4.87;4.77;;;;;;;;;;4882175;29;20449;-73
2023/09/08 10:08:49;;;;;;;4.87;4.50;;;;;;;;;;4885836;29;20447;-73
2023/09/08 10:11:15;;;;;;;4.53;4.43;;;;;;;;;;4894018;29;20499;-73
2023/09/08 10:13:46;;;;;;;5.10;4.70;;;;;;;;;;4872800;29;20471;-73
2023/09/08 10:16:14;;;;;;;4.60;4.23;;;;;;;;;;4886893;29;20448;-73
2023/09/08 10:18:42;;;;;;;6.50;5.80;;;;;;;;;;4887397;29;20464;-73
2023/09/08 10:21:08;;;;;;;4.90;4.50;;;;;;;;;;4882647;29;20819;-72
2023/09/08 10:23:37;;;;;;;5.17;4.93;;;;;;;;;;4887273;29;20512;-74
2023/09/08 10:26:05;;;;;;;4.67;4.47;;;;;;;;;;4876243;29;20458;-73
2023/09/08 10:28:33;;;;;;;5.83;4.63;;;;;;;;;;4882301;29;20436;-74
2023/09/08 10:30:59;;;;;;;4.90;4.80;;;;;;;;;;4885396;29;20778;-72
2023/09/08 10:33:26;;;;;;;4.67;4.33;;;;;;;;;;4886789;29;20563;-72
2023/09/08 10:35:53;;;;;;;4.67;4.40;;;;;;;;;;4887354;29;20810;-74
2023/09/08 10:38:29;;;;;;;4.70;4.30;;;;;;;;;;4876219;29;20435;-74
2023/09/08 10:41:15;;;;;;;5.00;4.50;;;;;;;;;;4887670;29;20474;-73
2023/09/08 10:43:41;;;;;;;4.40;4.20;;;;;;;;;;4879994;29;20425;-73
2023/09/08 10:46:10;;;;;;;5.37;5.07;;;;;;;;;;4887613;29;20441;-74
2023/09/08 10:48:45;;;;;;;4.53;4.27;;;;;;;;;;4888086;29;20474;-73
2023/09/08 10:51:15;;;;;;;4.80;4.60;;;;;;;;;;4884203;29;20479;-73
2023/09/08 10:53:41;;;;;;;5.03;4.83;;;;;;;;;;4887729;29;20441;-74
2023/09/08 10:56:07;;;;;;;5.17;4.77;;;;;;;;;;4884002;29;20457;-74
2023/09/08 10:58:37;;;;;;;4.53;4.33;;;;;;;;;;4880274;29;20452;-74
2023/09/08 11:01:04;;;;;;;4.97;4.57;;;;;;;;;;4883908;29;20479;-73
2023/09/08 11:03:41;;;;;;;4.87;4.77;;;;;;;;;;4876523;29;20509;-74
2023/09/08 11:06:08;;;;;;;4.80;4.60;;;;;;;;;;4883618;29;20508;-74
2023/09/08 11:08:35;;;;;;;4.43;4.23;;;;;;;;;;4890053;29;20416;-74
2023/09/08 11:11:01;;;;;;;4.40;4.20;;;;;;;;;;4889740;29;20476;-73
2023/09/08 11:13:28;;;;;;;5.07;4.73;;;;;;;;;;4905819;29;20452;-73
2023/09/08 11:15:54;;;;;;;4.83;4.00;;;;;;;;;;4892136;29;20462;-72
2023/09/08 11:18:27;;;;;;;4.60;4.50;;;;;;;;;;4890909;29;20436;-73
2023/09/08 11:20:53;;;;;;;5.07;4.87;;;;;;;;;;4888396;29;21103;-73
2023/09/08 11:23:20;;;;;;;4.37;4.33;;;;;;;;;;4879891;29;20448;-73
2023/09/08 11:25:46;;;;;;;4.53;4.53;;;;;;;;;;4883469;29;20439;-73
2023/09/08 11:28:13;;;;;;;5.50;5.20;;;;;;;;;;4883962;29;20810;-75
2023/09/08 11:30:40;;;;;;;4.60;4.40;;;;;;;;;;4883571;29;20479;-74
2023/09/08 11:33:14;;;;;;;4.13;4.13;;;;;;;;;;4887121;29;20508;-74
2023/09/08 11:35:40;;;;;;;5.53;4.30;;;;;;;;;;4880198;29;20940;-74
2023/09/08 11:38:06;;;;;;;4.87;4.43;;;;;;;;;;4886785;29;20444;-73
2023/09/08 11:40:34;;;;;;;4.53;4.33;;;;;;;;;;4889959;29;20946;-74
2023/09/08 11:43:00;;;;;;;5.17;4.90;;;;;;;;;;4886145;29;20441;-74
2023/09/08 11:45:27;;;;;;;4.47;4.40;;;;;;;;;;4885992;29;20849;-74
2023/09/08 11:47:53;;;;;;;5.50;4.93;;;;;;;;;;4887521;29;20452;-74
2023/09/08 11:50:19;;;;;;;5.03;4.77;;;;;;;;;;4890383;29;20520;-74
2023/09/08 11:52:49;;;;;;;5.03;4.90;;;;;;;;;;4890642;29;20444;-75
2023/09/08 11:55:15;;;;;;;4.70;4.43;;;;;;;;;;4886719;29;20861;-76
2023/09/08 11:57:43;;;;;;;4.53;4.33;;;;;;;;;;4887070;29;20476;-74
2023/09/08 12:00:12;;;;;;;4.50;4.40;;;;;;;;;;4890130;29;20460;-75
2023/09/08 12:02:38;;;;;;;4.53;4.17;;;;;;;;;;4883524;29;20468;-75
2023/09/08 12:05:04;;;;;;;5.00;4.93;;;;;;;;;;4881051;29;20487;-73
2023/09/08 12:07:31;;;;;;;4.60;4.50;;;;;;;;;;4894605;29;20436;-74
2023/09/08 12:09:58;;;;;;;4.70;4.50;;;;;;;;;;4880407;29;20449;-73
2023/09/08 12:12:24;;;;;;;4.77;4.67;;;;;;;;;;4883204;29;20469;-73
2023/09/08 12:14:50;;;;;;;4.50;4.40;;;;;;;;;;4883767;29;20433;-73
2023/09/08 12:17:18;;;;;;;4.80;4.70;;;;;;;;;;4881940;29;20451;-74
2023/09/08 12:19:44;;;;;;;4.30;4.20;;;;;;;;;;4884844;29;20441;-74
2023/09/08 12:22:12;;;;;;;4.63;4.43;;;;;;;;;;4890410;29;20774;-73
2023/09/08 12:25:10;;;;;;;4.37;4.27;;;;;;;;;;4888344;29;20517;-74
2023/09/08 12:27:37;;;;;;;5.37;4.93;;;;;;;;;;4848416;29;20786;-72
2023/09/08 12:30:08;;;;;;;5.30;4.90;;;;;;;;;;4885553;29;20456;-73
2023/09/08 12:32:36;;;;;;;4.70;4.70;;;;;;;;;;4889616;29;20469;-73
2023/09/08 12:35:03;;;;;;;4.10;3.97;;;;;;;;;;4893241;29;20443;-75
2023/09/08 12:37:30;;;;;;;4.33;4.23;;;;;;;;;;4892806;29;21042;-73
2023/09/08 12:39:56;;;;;;;5.30;5.03;;;;;;;;;;4885486;29;20939;-73
2023/09/08 12:42:25;;;;;;;4.80;4.60;;;;;;;;;;4900101;29;20432;-74
2023/09/08 12:44:51;;;;;;;5.47;5.37;;;;;;;;;;4887619;29;20460;-74
2023/09/08 12:47:18;;;;;;;5.90;5.20;;;;;;;;;;4895997;29;20421;-74
2023/09/08 12:49:44;;;;;;;5.00;4.77;;;;;;;;;;4890558;29;20445;-73
2023/09/08 12:52:10;;;;;;;4.33;4.33;;;;;;;;;;4895220;29;20522;-74
2023/09/08 12:54:36;;;;;;;4.73;4.53;;;;;;;;;;4892954;29;20468;-74
2023/09/08 12:57:02;;;;;;;5.37;5.07;;;;;;;;;;4892572;29;20678;-73
2023/09/08 12:59:28;;;;;;;5.20;5.00;;;;;;;;;;4886395;29;20480;-74
2023/09/08 13:01:56;;;;;;;4.67;4.67;;;;;;;;;;4892646;29;20607;-74
2023/09/08 13:04:22;;;;;;;5.23;5.03;;;;;;;;;;4875371;29;20528;-74
2023/09/08 13:06:49;;;;;;;6.80;6.40;;;;;;;;;;4895715;29;20413;-75
2023/09/08 13:09:15;;;;;;;5.20;5.00;;;;;;;;;;4887620;29;20802;-73
2023/09/08 13:11:42;;;;;;;5.40;5.20;;;;;;;;;;4884220;29;20468;-73
2023/09/08 13:14:08;;;;;;;4.87;4.63;;;;;;;;;;4896622;29;20652;-74
2023/09/08 13:16:34;;;;;;;5.00;4.90;;;;;;;;;;4883074;29;20631;-74
2023/09/08 13:19:00;;;;;;;4.70;4.60;;;;;;;;;;4875638;29;20444;-74
2023/09/08 13:21:26;;;;;;;4.57;4.50;;;;;;;;;;4878327;29;20644;-73
2023/09/08 13:23:52;;;;;;;5.40;5.10;;;;;;;;;;4886413;29;20455;-73
2023/09/08 13:26:18;;;;;;;4.67;4.57;;;;;;;;;;4884164;29;20690;-73
2023/09/08 13:28:44;;;;;;;5.07;4.87;;;;;;;;;;4881516;29;20441;-74
2023/09/08 13:31:10;;;;;;;4.57;4.50;;;;;;;;;;4876905;29;20745;-76
2023/09/08 13:33:36;;;;;;;4.93;4.83;;;;;;;;;;4874350;29;20825;-75
2023/09/08 13:36:02;;;;;;;5.37;5.27;;;;;;;;;;4878854;29;20570;-75
2023/09/08 13:38:28;;;;;;;6.10;5.80;;;;;;;;;;4880089;29;20596;-75
2023/09/08 13:40:54;;;;;;;4.97;4.77;;;;;;;;;;4881698;29;20433;-73
2023/09/08 13:43:21;;;;;;;4.93;4.53;;;;;;;;;;4886356;29;20532;-74
2023/09/08 13:45:47;;;;;;;5.30;5.20;;;;;;;;;;4879434;29;20706;-74
2023/09/08 13:48:13;;;;;;;4.97;4.67;;;;;;;;;;4874448;29;20461;-75
2023/09/08 13:50:41;;;;;;;5.77;5.37;;;;;;;;;;4880111;29;20472;-74
2023/09/08 13:53:07;;;;;;;5.70;5.60;;;;;;;;;;4880315;29;20457;-75
2023/09/08 13:55:33;;;;;;;4.70;4.60;;;;;;;;;;4881932;29;20451;-74
2023/09/08 13:57:59;;;;;;;5.10;4.90;;;;;;;;;;4873999;29;20497;-75
2023/09/08 14:00:25;;;;;;;5.90;4.93;;;;;;;;;;4884409;29;20448;-73
2023/09/08 14:02:51;;;;;;;5.27;5.13;;;;;;;;;;4879204;29;20463;-73
2023/09/08 14:05:17;;;;;;;5.00;4.70;;;;;;;;;;4877242;29;21359;-74
2023/09/08 14:07:43;;;;;;;5.20;5.10;;;;;;;;;;4878227;29;20528;-73
2023/09/08 14:10:10;;;;;;;5.40;5.20;;;;;;;;;;4870299;29;20604;-73
2023/09/08 14:12:36;;;;;;;4.97;4.87;;;;;;;;;;4879305;29;20571;-74
2023/09/08 14:15:02;;;;;;;5.70;5.60;;;;;;;;;;4879862;29;20655;-72
2023/09/08 14:17:28;;;;;;;4.93;4.73;;;;;;;;;;4879484;29;20539;-73
2023/09/08 14:19:54;;;;;;;5.80;5.63;;;;;;;;;;4878324;29;20596;-73
2023/09/08 14:22:20;;;;;;;5.40;5.10;;;;;;;;;;4872692;29;20448;-73
2023/09/08 14:24:46;;;;;;;5.37;5.23;;;;;;;;;;4875616;29;20453;-73
2023/09/08 14:27:12;;;;;;;5.53;5.33;;;;;;;;;;4874498;29;20449;-75
2023/09/08 14:29:38;;;;;;;5.03;4.73;;;;;;;;;;4880462;29;20437;-73
2023/09/08 14:32:04;;;;;;;5.70;5.60;;;;;;;;;;4876115;29;20531;-73
2023/09/08 14:34:30;;;;;;;5.43;5.33;;;;;;;;;;4880128;29;20439;-73
2023/09/08 14:36:56;;;;;;;5.10;4.90;;;;;;;;;;4879670;29;20794;-74